createdAt,value
2018-03-28T00:01:12.025Z,76.36
2018-03-28T00:02:39.218Z,76.24
2018-03-28T00:04:10.465Z,76.68
2018-03-28T00:05:33.859Z,74.87
2018-03-28T00:07:01.179Z,75.51
2018-03-28T00:08:32.419Z,74.90
2018-03-28T00:09:59.686Z,75.10
2018-03-28T00:11:27.029Z,74.44
2018-03-28T00:12:50.314Z,74.32
2018-03-28T00:14:21.525Z,74.27
2018-03-28T00:15:48.658Z,73.94
2018-03-28T00:17:11.795Z,74.25
2018-03-28T00:18:39.254Z,74.00
2018-03-28T00:20:06.550Z,73.83
2018-03-28T00:21:33.803Z,74.26
2018-03-28T00:23:04.933Z,74.00
2018-03-28T00:24:32.115Z,73.69
2018-03-28T00:25:55.521Z,73.68
2018-03-28T00:27:22.757Z,73.80
2018-03-28T00:28:53.764Z,73.88
2018-03-28T00:30:20.848Z,74.06
2018-03-28T00:31:44.103Z,74.04
2018-03-28T00:33:11.280Z,74.38
2018-03-28T00:34:38.377Z,74.36
2018-03-28T00:36:09.553Z,73.78
2018-03-28T00:37:32.757Z,73.61
2018-03-28T00:38:59.894Z,73.78
2018-03-28T00:40:31.173Z,74.34
2018-03-28T00:41:54.327Z,74.02
2018-03-28T00:43:25.606Z,74.47
2018-03-28T00:44:52.779Z,74.56
2018-03-28T00:46:15.948Z,74.07
2018-03-28T00:47:43.297Z,73.41
2018-03-28T00:49:10.385Z,73.73
2018-03-28T00:50:37.432Z,73.79
2018-03-28T00:52:08.624Z,73.99
2018-03-28T00:53:31.806Z,73.49
2018-03-28T00:55:03.063Z,73.37
2018-03-28T00:56:30.122Z,74.09
2018-03-28T00:57:53.398Z,73.52
2018-03-28T00:59:20.489Z,73.81
2018-03-28T01:00:47.725Z,74.20
2018-03-28T01:02:14.791Z,74.31
2018-03-28T01:03:45.815Z,74.21
2018-03-28T01:05:13.115Z,74.49
2018-03-28T01:06:36.419Z,74.24
2018-03-28T01:08:07.462Z,74.55
2018-03-28T01:09:30.665Z,74.15
2018-03-28T01:11:01.752Z,74.21
2018-03-28T01:12:29.052Z,74.21
2018-03-28T01:13:52.292Z,74.28
2018-03-28T01:15:23.550Z,74.35
2018-03-28T01:16:50.720Z,74.35
2018-03-28T01:18:13.766Z,74.84
2018-03-28T01:19:44.813Z,74.93
2018-03-28T01:21:07.937Z,74.94
2018-03-28T01:22:40.287Z,74.86
2018-03-28T01:24:02.492Z,74.31
2018-03-28T01:25:33.665Z,74.74
2018-03-28T01:27:00.839Z,74.75
2018-03-28T01:28:23.932Z,75.26
2018-03-28T01:29:51.178Z,75.08
2018-03-28T01:31:22.406Z,75.56
2018-03-28T01:32:45.649Z,74.73
2018-03-28T01:34:12.865Z,74.98
2018-03-28T01:35:40.022Z,75.15
2018-03-28T01:37:11.160Z,75.21
2018-03-28T01:38:34.406Z,75.00
2018-03-28T01:40:01.445Z,74.97
2018-03-28T01:41:32.713Z,75.18
2018-03-28T01:42:55.850Z,75.20
2018-03-28T01:44:23.006Z,75.75
2018-03-28T01:45:54.191Z,75.43
2018-03-28T01:47:17.262Z,75.68
2018-03-28T01:48:48.396Z,75.75
2018-03-28T01:50:11.486Z,75.73
2018-03-28T01:51:42.487Z,75.97
2018-03-28T01:53:05.669Z,76.06
2018-03-28T01:54:36.772Z,75.77
2018-03-28T01:56:04.023Z,74.93
2018-03-28T01:57:27.225Z,75.47
2018-03-28T01:58:58.386Z,75.92
2018-03-28T02:00:25.466Z,75.12
2018-03-28T02:01:48.615Z,75.77
2018-03-28T02:03:15.741Z,75.76
2018-03-28T02:04:46.937Z,75.45
2018-03-28T02:06:14.011Z,74.95
2018-03-28T02:07:37.358Z,75.06
2018-03-28T02:09:08.416Z,75.50
2018-03-28T02:10:31.644Z,76.06
2018-03-28T02:12:02.967Z,76.21
2018-03-28T02:13:26.032Z,76.29
2018-03-28T02:14:57.049Z,76.27
2018-03-28T02:16:20.264Z,76.02
2018-03-28T02:17:47.407Z,76.27
2018-03-28T02:19:14.598Z,76.51
2018-03-28T02:20:41.754Z,76.86
2018-03-28T02:22:08.730Z,77.17
2018-03-28T02:23:35.855Z,77.65
2018-03-28T02:25:02.943Z,77.48
2018-03-28T02:26:34.243Z,77.63
2018-03-28T02:27:57.456Z,78.18
2018-03-28T02:29:31.620Z,78.38
2018-03-28T02:30:55.819Z,78.56
2018-03-28T02:32:23.074Z,78.97
2018-03-28T02:33:50.145Z,79.49
2018-03-28T02:35:13.348Z,79.93
2018-03-28T02:36:40.542Z,80.26
2018-03-28T02:38:11.702Z,80.01
2018-03-28T02:39:38.743Z,79.93
2018-03-28T02:41:01.930Z,79.94
2018-03-28T02:42:29.237Z,80.14
2018-03-28T02:43:56.308Z,79.99
2018-03-28T02:45:27.628Z,80.27
2018-03-28T02:46:54.903Z,80.33
2018-03-28T02:48:17.882Z,80.45
2018-03-28T02:49:49.023Z,80.88
2018-03-28T02:51:12.128Z,80.89
2018-03-28T02:52:38.997Z,80.72
2018-03-28T02:54:06.330Z,81.03
2018-03-28T02:55:37.621Z,80.96
2018-03-28T02:57:00.774Z,81.07
2018-03-28T02:58:32.017Z,80.97
2018-03-28T02:59:59.010Z,80.89
2018-03-28T03:01:26.207Z,80.52
2018-03-28T03:02:53.461Z,80.68
2018-03-28T03:04:20.738Z,81.23
2018-03-28T03:05:47.931Z,81.20
2018-03-28T03:07:11.242Z,81.12
2018-03-28T03:08:38.211Z,81.46
2018-03-28T03:10:05.444Z,81.01
2018-03-28T03:11:36.750Z,81.39
2018-03-28T03:13:00.148Z,81.28
2018-03-28T03:14:31.296Z,81.41
2018-03-28T03:15:58.554Z,81.36
2018-03-28T03:17:25.812Z,81.08
2018-03-28T03:18:53.085Z,81.17
2018-03-28T03:20:16.362Z,80.96
2018-03-28T03:21:43.527Z,80.41
2018-03-28T03:23:10.693Z,81.01
2018-03-28T03:24:41.496Z,81.11
2018-03-28T03:26:08.733Z,81.24
2018-03-28T03:27:35.934Z,81.35
2018-03-28T03:29:03.194Z,81.80
2018-03-28T03:31:57.663Z,81.87
2018-03-28T03:33:20.998Z,81.86
2018-03-28T03:34:52.155Z,81.68
2018-03-28T03:36:15.267Z,81.88
2018-03-28T03:37:46.446Z,82.30
2018-03-28T03:39:09.274Z,82.38
2018-03-28T03:40:36.569Z,82.46
2018-03-28T03:42:03.887Z,82.46
2018-03-28T03:43:31.105Z,82.46
2018-03-28T03:45:02.302Z,82.60
2018-03-28T03:46:25.647Z,82.77
2018-03-28T03:47:56.955Z,82.63
2018-03-28T03:49:20.147Z,82.78
2018-03-28T03:50:51.348Z,82.94
2018-03-28T03:52:18.515Z,83.22
2018-03-28T03:53:41.807Z,83.34
2018-03-28T03:55:09.001Z,83.16
2018-03-28T03:56:36.043Z,83.32
2018-03-28T03:58:07.287Z,83.31
2018-03-28T03:59:34.568Z,83.28
2018-03-28T04:00:57.864Z,83.21
2018-03-28T04:02:28.989Z,83.34
2018-03-28T04:03:52.143Z,82.88
2018-03-28T04:05:19.442Z,82.97
2018-03-28T04:06:50.607Z,83.09
2018-03-28T04:08:17.911Z,83.37
2018-03-28T04:09:44.939Z,82.27
2018-03-28T04:11:12.085Z,81.91
2018-03-28T04:12:35.235Z,81.50
2018-03-28T04:14:06.541Z,81.23
2018-03-28T04:15:29.763Z,80.93
2018-03-28T04:16:56.910Z,80.79
2018-03-28T04:18:27.852Z,80.85
2018-03-28T04:19:51.098Z,80.91
2018-03-28T04:21:22.304Z,80.68
2018-03-28T04:22:45.339Z,80.65
2018-03-28T04:24:12.465Z,80.30
2018-03-28T04:25:39.762Z,80.67
2018-03-28T04:27:06.979Z,80.99
2018-03-28T04:28:38.159Z,80.59
2018-03-28T04:30:01.491Z,80.33
2018-03-28T04:31:28.601Z,80.94
2018-03-28T04:32:55.772Z,80.71
2018-03-28T04:34:23.100Z,80.88
2018-03-28T04:35:50.311Z,81.28
2018-03-28T04:37:17.400Z,80.98
2018-03-28T04:38:44.629Z,81.27
2018-03-28T04:40:15.681Z,81.51
2018-03-28T04:41:42.818Z,81.58
2018-03-28T04:43:10.134Z,81.45
2018-03-28T04:44:33.484Z,81.47
2018-03-28T04:46:04.576Z,81.91
2018-03-28T04:47:27.843Z,81.68
2018-03-28T04:48:54.889Z,81.75
2018-03-28T04:50:22.033Z,82.13
2018-03-28T04:51:49.452Z,81.76
2018-03-28T04:53:16.603Z,82.30
2018-03-28T04:54:43.849Z,81.77
2018-03-28T04:56:15.054Z,82.06
2018-03-28T04:57:38.114Z,82.30
2018-03-28T04:59:09.484Z,82.77
2018-03-28T05:00:32.624Z,83.04
2018-03-28T05:02:00.009Z,83.07
2018-03-28T05:03:27.206Z,82.64
2018-03-28T05:04:58.323Z,82.40
2018-03-28T05:06:25.550Z,82.58
2018-03-28T05:07:52.788Z,82.62
2018-03-28T05:09:19.860Z,82.43
2018-03-28T05:10:43.091Z,82.40
2018-03-28T05:12:14.187Z,82.55
2018-03-28T05:13:41.445Z,82.44
2018-03-28T05:15:08.616Z,82.06
2018-03-28T05:16:35.770Z,82.32
2018-03-28T05:18:02.920Z,82.21
2018-03-28T05:19:30.129Z,81.95
2018-03-28T05:20:57.422Z,82.30
2018-03-28T05:22:20.605Z,81.81
2018-03-28T05:23:47.708Z,81.79
2018-03-28T05:25:18.891Z,80.88
2018-03-28T05:26:42.088Z,80.37
2018-03-28T05:28:13.165Z,81.24
2018-03-28T05:29:36.401Z,81.69
2018-03-28T05:31:03.771Z,82.08
2018-03-28T05:32:34.978Z,80.81
2018-03-28T05:33:58.151Z,81.78
2018-03-28T05:35:29.400Z,81.93
2018-03-28T05:36:56.495Z,81.45
2018-03-28T05:38:19.690Z,80.51
2018-03-28T05:39:50.813Z,80.59
2018-03-28T05:41:14.038Z,80.69
2018-03-28T05:42:41.238Z,80.64
2018-03-28T05:44:12.310Z,79.66
2018-03-28T05:45:35.537Z,79.71
2018-03-28T05:47:06.661Z,79.69
2018-03-28T05:48:29.885Z,80.01
2018-03-28T05:49:57.090Z,80.76
2018-03-28T05:51:28.366Z,80.00
2018-03-28T05:52:51.632Z,80.36
2018-03-28T05:54:18.824Z,79.72
2018-03-28T05:55:49.885Z,79.25
2018-03-28T05:57:12.980Z,79.32
2018-03-28T05:58:44.137Z,80.04
2018-03-28T06:00:07.377Z,80.22
2018-03-28T06:01:34.596Z,79.05
2018-03-28T06:03:01.773Z,79.68
2018-03-28T06:04:29.051Z,79.92
2018-03-28T06:05:56.258Z,80.00
2018-03-28T06:07:23.716Z,78.93
2018-03-28T06:08:50.892Z,80.21
2018-03-28T06:10:17.869Z,80.71
2018-03-28T06:11:44.980Z,80.65
2018-03-28T06:13:12.116Z,79.97
2018-03-28T06:14:39.316Z,80.38
2018-03-28T06:16:06.396Z,80.46
2018-03-28T06:17:33.675Z,79.55
2018-03-28T06:19:04.811Z,80.15
2018-03-28T06:20:27.913Z,80.32
2018-03-28T06:21:59.046Z,78.96
2018-03-28T06:23:22.280Z,79.94
2018-03-28T06:24:49.577Z,80.17
2018-03-28T06:26:20.682Z,79.33
2018-03-28T06:27:47.873Z,78.79
2018-03-28T06:29:11.088Z,79.04
2018-03-28T06:30:42.182Z,78.76
2018-03-28T06:32:05.139Z,79.43
2018-03-28T06:33:32.188Z,79.71
2018-03-28T06:35:03.087Z,79.57
2018-03-28T06:36:26.234Z,80.49
2018-03-28T06:37:57.289Z,80.99
2018-03-28T06:39:24.155Z,79.65
2018-03-28T06:40:47.094Z,79.28
2018-03-28T06:42:14.355Z,80.03
2018-03-28T06:43:41.251Z,80.14
2018-03-28T06:45:08.319Z,80.05
2018-03-28T06:46:35.669Z,79.71
2018-03-28T06:48:02.895Z,78.64
2018-03-28T06:49:30.205Z,79.45
2018-03-28T06:50:57.469Z,78.91
2018-03-28T06:52:24.539Z,79.30
2018-03-28T06:53:55.627Z,79.47
2018-03-28T06:55:18.753Z,79.03
2018-03-28T06:56:49.958Z,79.99
2018-03-28T06:58:17.156Z,80.31
2018-03-28T06:59:40.229Z,78.99
2018-03-28T07:01:11.314Z,78.86
2018-03-28T07:02:38.607Z,78.57
2018-03-28T07:04:01.951Z,78.83
2018-03-28T07:05:29.274Z,79.18
2018-03-28T07:06:56.210Z,78.76
2018-03-28T07:08:23.324Z,79.28
2018-03-28T07:09:50.489Z,79.41
2018-03-28T07:11:17.758Z,79.52
2018-03-28T07:12:44.664Z,79.20
2018-03-28T07:14:11.781Z,79.30
2018-03-28T07:15:38.675Z,78.78
2018-03-28T07:17:09.832Z,79.16
2018-03-28T07:18:32.742Z,77.96
2018-03-28T07:19:59.919Z,79.02
2018-03-28T07:21:31.124Z,78.34
2018-03-28T07:22:54.371Z,78.41
2018-03-28T07:24:25.590Z,78.72
2018-03-28T07:25:48.875Z,79.17
2018-03-28T07:27:16.000Z,79.13
2018-03-28T07:28:43.163Z,78.56
2018-03-28T07:30:10.259Z,78.72
2018-03-28T07:31:41.594Z,78.93
2018-03-28T07:33:04.810Z,78.80
2018-03-28T07:34:32.034Z,80.80
2018-03-28T07:36:03.275Z,79.66
2018-03-28T07:37:30.612Z,79.42
2018-03-28T07:38:57.844Z,78.41
2018-03-28T07:40:25.117Z,79.17
2018-03-28T07:41:48.180Z,79.49
2018-03-28T07:43:19.276Z,78.48
2018-03-28T07:44:46.482Z,78.47
2018-03-28T07:46:13.357Z,78.67
2018-03-28T07:47:40.538Z,78.67
2018-03-28T07:49:03.766Z,79.43
2018-03-28T07:50:34.736Z,79.37
2018-03-28T07:52:01.968Z,79.26
2018-03-28T07:53:25.115Z,78.68
2018-03-28T07:54:56.380Z,79.14
2018-03-28T07:56:23.613Z,79.06
2018-03-28T07:57:46.848Z,79.67
2018-03-28T07:59:14.007Z,79.41
2018-03-28T08:00:41.078Z,79.02
2018-03-28T08:02:12.074Z,79.73
2018-03-28T08:03:39.278Z,79.11
2018-03-28T08:05:02.371Z,79.23
2018-03-28T08:06:33.604Z,79.47
2018-03-28T08:07:56.787Z,79.61
2018-03-28T08:09:24.157Z,80.15
2018-03-28T08:10:51.333Z,79.42
2018-03-28T08:12:18.500Z,79.21
2018-03-28T08:13:49.739Z,78.88
2018-03-28T08:15:16.925Z,79.76
2018-03-28T08:16:44.074Z,80.44
2018-03-28T08:18:11.346Z,79.68
2018-03-28T08:19:34.527Z,79.36
2018-03-28T08:21:05.711Z,78.98
2018-03-28T08:22:33.013Z,78.09
2018-03-28T08:23:56.133Z,78.00
2018-03-28T08:25:23.401Z,78.64
2018-03-28T08:26:50.514Z,78.54
2018-03-28T08:28:17.822Z,78.43
2018-03-28T08:29:44.959Z,78.43
2018-03-28T08:31:12.015Z,78.30
2018-03-28T08:32:39.015Z,79.31
2018-03-28T08:34:06.070Z,78.91
2018-03-28T08:35:37.292Z,79.84
2018-03-28T08:37:04.372Z,79.58
2018-03-28T08:38:31.716Z,79.01
2018-03-28T08:39:59.062Z,78.13
2018-03-28T08:41:22.236Z,78.76
2018-03-28T08:42:53.373Z,78.77
2018-03-28T08:44:20.479Z,79.15
2018-03-28T08:45:47.622Z,79.12
2018-03-28T08:47:10.572Z,78.35
2018-03-28T08:48:37.841Z,78.90
2018-03-28T08:50:09.088Z,78.46
2018-03-28T08:51:32.121Z,77.30
2018-03-28T08:52:59.392Z,77.89
2018-03-28T08:54:30.601Z,78.44
2018-03-28T08:55:53.796Z,77.06
2018-03-28T08:57:24.888Z,77.71
2018-03-28T08:58:48.120Z,76.46
2018-03-28T09:00:19.273Z,78.13
2018-03-28T09:01:46.534Z,76.42
2018-03-28T09:03:09.630Z,77.86
2018-03-28T09:04:37.021Z,76.56
2018-03-28T09:06:04.231Z,76.28
2018-03-28T09:07:35.408Z,76.58
2018-03-28T09:08:58.750Z,75.67
2018-03-28T09:10:29.922Z,75.94
2018-03-28T09:11:57.091Z,77.16
2018-03-28T09:13:24.240Z,77.38
2018-03-28T09:14:47.467Z,76.86
2018-03-28T09:16:18.658Z,76.79
2018-03-28T09:17:45.828Z,76.89
2018-03-28T09:19:13.024Z,76.99
2018-03-28T09:20:40.234Z,76.02
2018-03-28T09:22:03.624Z,76.57
2018-03-28T09:23:34.715Z,77.02
2018-03-28T09:25:01.999Z,76.53
2018-03-28T09:26:29.146Z,76.86
2018-03-28T09:27:52.468Z,76.40
2018-03-28T09:29:23.610Z,76.78
2018-03-28T09:30:46.807Z,77.02
2018-03-28T09:32:13.844Z,77.06
2018-03-28T09:33:45.046Z,77.42
2018-03-28T09:35:08.145Z,77.11
2018-03-28T09:36:39.402Z,77.61
2018-03-28T09:38:06.308Z,78.44
2018-03-28T09:39:33.448Z,77.44
2018-03-28T09:41:00.685Z,77.54
2018-03-28T09:42:23.777Z,78.12
2018-03-28T09:43:50.839Z,78.05
2018-03-28T09:45:18.037Z,77.91
2018-03-28T09:46:45.258Z,77.02
2018-03-28T09:48:16.445Z,77.71
2018-03-28T09:49:43.674Z,77.87
2018-03-28T09:51:10.708Z,78.21
2018-03-28T09:52:37.873Z,78.06
2018-03-28T09:54:01.161Z,77.95
2018-03-28T09:55:32.258Z,77.24
2018-03-28T09:56:55.595Z,77.81
2018-03-28T09:58:26.849Z,77.68
2018-03-28T09:59:49.976Z,77.42
2018-03-28T10:01:21.315Z,77.64
2018-03-28T10:02:48.370Z,78.86
2018-03-28T10:04:11.579Z,77.34
2018-03-28T10:05:38.632Z,77.79
2018-03-28T10:07:09.772Z,78.27
2018-03-28T10:08:33.082Z,78.35
2018-03-28T10:10:04.246Z,78.63
2018-03-28T10:11:27.411Z,78.34
2018-03-28T10:12:54.445Z,78.44
2018-03-28T10:14:21.616Z,78.55
2018-03-28T10:15:52.684Z,78.46
2018-03-28T10:17:15.986Z,78.68
2018-03-28T10:18:46.976Z,77.50
2018-03-28T10:20:09.832Z,77.13
2018-03-28T10:21:36.994Z,77.32
2018-03-28T10:23:04.211Z,77.33
2018-03-28T10:24:35.445Z,77.93
2018-03-28T10:26:02.691Z,77.44
2018-03-28T10:27:29.881Z,77.45
2018-03-28T10:28:53.162Z,78.11
2018-03-28T10:30:20.381Z,77.71
2018-03-28T10:31:51.565Z,78.04
2018-03-28T10:33:14.729Z,78.05
2018-03-28T10:34:41.773Z,78.17
2018-03-28T10:36:12.841Z,77.39
2018-03-28T10:37:36.158Z,77.82
2018-03-28T10:39:07.423Z,77.84
2018-03-28T10:40:30.610Z,77.90
2018-03-28T10:41:57.952Z,77.57
2018-03-28T10:43:29.016Z,77.53
2018-03-28T10:44:56.300Z,78.22
2018-03-28T10:46:19.432Z,79.28
2018-03-28T10:47:46.728Z,77.92
2018-03-28T10:49:13.784Z,78.01
2018-03-28T10:50:41.046Z,77.55
2018-03-28T10:52:08.120Z,77.71
2018-03-28T10:53:35.400Z,76.97
2018-03-28T10:55:06.591Z,77.85
2018-03-28T10:56:33.580Z,77.72
2018-03-28T10:58:00.850Z,77.06
2018-03-28T10:59:23.863Z,76.77
2018-03-28T11:00:51.005Z,77.27
2018-03-28T11:02:22.263Z,77.67
2018-03-28T11:03:49.231Z,77.83
2018-03-28T11:05:16.412Z,77.88
2018-03-28T11:06:39.434Z,78.08
2018-03-28T11:08:10.347Z,76.88
2018-03-28T11:09:33.523Z,76.80
2018-03-28T11:11:04.774Z,77.48
2018-03-28T11:12:27.996Z,78.16
2018-03-28T11:13:54.979Z,77.66
2018-03-28T11:15:26.186Z,76.64
2018-03-28T11:16:49.361Z,77.60
2018-03-28T11:18:16.376Z,78.42
2018-03-28T11:19:43.436Z,78.23
2018-03-28T11:21:14.601Z,78.17
2018-03-28T11:22:41.799Z,79.17
2018-03-28T11:24:08.949Z,78.01
2018-03-28T11:25:32.264Z,77.91
2018-03-28T11:26:59.387Z,78.39
2018-03-28T11:28:26.690Z,77.01
2018-03-28T11:29:57.885Z,77.09
2018-03-28T11:31:25.108Z,76.95
2018-03-28T11:32:48.199Z,77.54
2018-03-28T11:34:15.446Z,78.24
2018-03-28T11:35:46.545Z,77.86
2018-03-28T11:37:09.656Z,77.44
2018-03-28T11:38:36.979Z,78.36
2018-03-28T11:40:08.162Z,76.92
2018-03-28T11:41:31.260Z,76.69
2018-03-28T11:43:02.496Z,76.85
2018-03-28T11:44:25.788Z,77.17
2018-03-28T11:45:52.991Z,77.45
2018-03-28T11:47:20.036Z,76.87
2018-03-28T11:48:47.067Z,76.61
2018-03-28T11:50:18.241Z,76.22
2018-03-28T11:51:41.426Z,75.62
2018-03-28T11:53:08.561Z,75.60
2018-03-28T11:54:39.690Z,75.93
2018-03-28T11:56:02.763Z,75.59
2018-03-28T11:57:29.875Z,76.59
2018-03-28T11:58:57.028Z,75.78
2018-03-28T12:00:28.208Z,76.53
2018-03-28T12:01:51.625Z,76.80
2018-03-28T12:03:18.967Z,76.90
2018-03-28T12:04:50.121Z,77.15
2018-03-28T12:06:17.420Z,77.13
2018-03-28T12:07:40.469Z,77.20
2018-03-28T12:09:11.840Z,76.59
2018-03-28T12:10:39.081Z,76.64
2018-03-28T12:12:02.390Z,76.32
2018-03-28T12:13:33.550Z,76.23
2018-03-28T12:14:56.677Z,76.53
2018-03-28T12:16:23.957Z,77.28
2018-03-28T12:17:55.050Z,77.78
2018-03-28T12:19:18.195Z,76.78
2018-03-28T12:20:45.371Z,76.88
2018-03-28T12:22:16.556Z,77.70
2018-03-28T12:23:39.587Z,76.49
2018-03-28T12:25:10.790Z,76.12
2018-03-28T12:26:37.826Z,76.50
2018-03-28T12:28:05.133Z,76.09
2018-03-28T12:29:28.359Z,76.71
2018-03-28T12:30:55.730Z,74.26
2018-03-28T12:32:23.063Z,75.46
2018-03-28T12:33:54.140Z,75.31
2018-03-28T12:35:17.414Z,75.19
2018-03-28T12:36:44.460Z,73.68
2018-03-28T12:38:15.747Z,73.91
2018-03-28T12:39:38.544Z,74.48
2018-03-28T12:41:05.814Z,73.94
2018-03-28T12:42:36.990Z,74.06
2018-03-28T12:44:04.068Z,74.38
2018-03-28T12:45:27.550Z,74.92
2018-03-28T12:46:58.548Z,75.99
2018-03-28T12:48:21.544Z,76.62
2018-03-28T12:49:48.976Z,75.64
2018-03-28T12:51:20.102Z,74.29
2018-03-28T12:52:43.450Z,73.01
2018-03-28T12:54:10.625Z,73.63
2018-03-28T12:55:37.468Z,72.55
2018-03-28T12:57:08.598Z,71.92
2018-03-28T12:58:31.852Z,72.17
2018-03-28T13:00:03.095Z,72.96
2018-03-28T13:01:26.357Z,73.27
2018-03-28T13:02:57.661Z,73.72
2018-03-28T13:04:20.817Z,73.40
2018-03-28T13:05:51.994Z,73.25
2018-03-28T13:07:15.287Z,70.97
2018-03-28T13:08:42.388Z,70.91
2018-03-28T13:10:13.537Z,71.42
2018-03-28T13:11:37.108Z,70.70
2018-03-28T13:13:04.256Z,71.55
2018-03-28T13:14:35.554Z,72.53
2018-03-28T13:16:02.749Z,72.05
2018-03-28T13:17:29.937Z,70.99
2018-03-28T13:18:57.070Z,70.62
2018-03-28T13:20:20.274Z,69.83
2018-03-28T13:22:01.148Z,70.69
2018-03-28T13:23:28.366Z,71.08
2018-03-28T13:24:51.475Z,69.74
2018-03-28T13:26:22.646Z,71.19
2018-03-28T13:27:45.923Z,71.95
2018-03-28T13:29:13.067Z,71.42
2018-03-28T13:30:44.131Z,72.17
2018-03-28T13:32:07.411Z,70.30
2018-03-28T13:33:34.716Z,70.76
2018-03-28T13:35:05.943Z,71.58
2018-03-28T13:36:28.997Z,71.78
2018-03-28T13:38:00.100Z,70.80
2018-03-28T13:39:23.412Z,71.86
2018-03-28T13:40:50.630Z,72.39
2018-03-28T13:42:21.782Z,71.29
2018-03-28T13:43:48.878Z,70.70
2018-03-28T13:45:16.143Z,69.32
2018-03-28T13:46:39.393Z,68.38
2018-03-28T13:48:10.653Z,68.28
2018-03-28T13:49:33.529Z,69.46
2018-03-28T13:51:00.980Z,69.05
2018-03-28T13:52:27.769Z,69.06
2018-03-28T13:53:58.876Z,68.78
2018-03-28T13:55:25.953Z,69.47
2018-03-28T13:56:53.051Z,70.27
2018-03-28T13:58:16.172Z,71.25
2018-03-28T13:59:43.342Z,70.59
2018-03-28T14:01:14.549Z,72.02
2018-03-28T14:02:38.027Z,70.27
2018-03-28T14:04:05.194Z,70.06
2018-03-28T14:05:32.466Z,69.42
2018-03-28T14:07:03.739Z,69.83
2018-03-28T14:08:30.942Z,69.58
2018-03-28T14:09:54.244Z,68.66
2018-03-28T14:11:25.436Z,69.31
2018-03-28T14:12:48.656Z,69.68
2018-03-28T14:14:15.705Z,69.79
2018-03-28T14:15:42.733Z,69.37
2018-03-28T14:17:09.910Z,70.02
2018-03-28T14:18:37.244Z,70.70
2018-03-28T14:20:04.453Z,70.21
2018-03-28T14:21:31.603Z,69.14
2018-03-28T14:22:58.749Z,69.48
2018-03-28T14:24:30.078Z,69.61
2018-03-28T14:25:53.465Z,70.09
2018-03-28T14:27:24.580Z,68.63
2018-03-28T14:28:47.756Z,69.42
2018-03-28T14:30:18.906Z,68.66
2018-03-28T14:31:42.200Z,68.86
2018-03-28T14:33:09.271Z,69.17
2018-03-28T14:34:36.559Z,70.47
2018-03-28T14:36:07.798Z,70.05
2018-03-28T14:37:30.982Z,69.93
2018-03-28T14:39:02.119Z,70.43
2018-03-28T14:40:25.312Z,71.10
2018-03-28T14:41:56.630Z,70.33
2018-03-28T14:43:19.876Z,69.54
2018-03-28T14:44:50.888Z,71.31
2018-03-28T14:46:18.087Z,69.89
2018-03-28T14:47:41.295Z,69.90
2018-03-28T14:49:08.375Z,70.82
2018-03-28T14:50:39.558Z,71.09
2018-03-28T14:52:02.820Z,71.59
2018-03-28T14:53:30.148Z,69.58
2018-03-28T14:54:57.108Z,69.46
2018-03-28T14:56:28.414Z,70.27
2018-03-28T14:57:55.660Z,71.02
2018-03-28T14:59:18.964Z,69.89
2018-03-28T15:00:50.006Z,70.98
2018-03-28T15:02:17.237Z,70.27
2018-03-28T15:03:44.407Z,70.12
2018-03-28T15:05:11.627Z,70.51
2018-03-28T15:06:38.911Z,69.94
2018-03-28T15:08:06.187Z,70.43
2018-03-28T15:09:33.264Z,70.23
2018-03-28T15:10:56.406Z,69.89
2018-03-28T15:12:27.625Z,69.97
2018-03-28T15:13:54.916Z,68.98
2018-03-28T15:15:22.033Z,68.91
2018-03-28T15:16:45.324Z,69.67
2018-03-28T15:18:16.419Z,70.45
2018-03-28T15:19:39.714Z,70.88
2018-03-28T15:21:11.063Z,69.87
2018-03-28T15:22:38.404Z,70.45
2018-03-28T15:24:01.654Z,70.90
2018-03-28T15:25:29.009Z,70.48
2018-03-28T15:26:55.777Z,70.81
2018-03-28T15:28:22.925Z,69.63
2018-03-28T15:29:50.268Z,70.75
2018-03-28T15:31:21.401Z,70.97
2018-03-28T15:32:44.650Z,71.26
2018-03-28T15:34:15.836Z,70.21
2018-03-28T15:35:38.912Z,69.68
2018-03-28T15:37:06.079Z,69.96
2018-03-28T15:38:37.279Z,70.21
2018-03-28T15:40:04.431Z,71.25
2018-03-28T15:41:31.679Z,70.40
2018-03-28T15:42:54.802Z,70.62
2018-03-28T15:44:22.204Z,70.25
2018-03-28T15:45:53.274Z,70.80
2018-03-28T15:47:20.506Z,70.83
2018-03-28T15:48:43.686Z,70.89
2018-03-28T15:50:10.722Z,70.93
2018-03-28T15:51:47.792Z,71.27
2018-03-28T15:53:18.719Z,71.44
2018-03-28T15:54:45.981Z,70.32
2018-03-28T15:56:09.184Z,71.12
2018-03-28T15:57:40.256Z,70.04
2018-03-28T15:59:07.507Z,70.58
2018-03-28T16:00:30.867Z,71.08
2018-03-28T16:02:02.110Z,70.70
2018-03-28T16:03:25.286Z,71.23
2018-03-28T16:04:52.344Z,71.25
2018-03-28T16:06:19.531Z,71.24
2018-03-28T16:07:50.659Z,70.57
2018-03-28T16:09:17.872Z,71.32
2018-03-28T16:10:45.140Z,70.92
2018-03-28T16:12:08.063Z,70.73
2018-03-28T16:13:39.349Z,70.32
2018-03-28T16:15:06.600Z,70.34
2018-03-28T16:16:29.934Z,70.83
2018-03-28T16:18:01.052Z,70.91
2018-03-28T16:19:28.309Z,70.64
2018-03-28T16:20:55.469Z,69.85
2018-03-28T16:22:18.648Z,70.21
2018-03-28T16:23:49.824Z,70.92
2018-03-28T16:25:16.913Z,70.21
2018-03-28T16:26:43.972Z,71.55
2018-03-28T16:28:10.965Z,71.18
2018-03-28T16:29:38.203Z,70.54
2018-03-28T16:31:01.400Z,70.12
2018-03-28T16:32:28.506Z,70.71
2018-03-28T16:33:55.703Z,70.43
2018-03-28T16:35:26.865Z,70.27
2018-03-28T16:36:54.120Z,70.88
2018-03-28T16:38:21.345Z,71.72
2018-03-28T16:39:48.372Z,70.78
2018-03-28T16:41:11.546Z,70.26
2018-03-28T16:42:38.653Z,70.22
2018-03-28T16:44:09.928Z,70.86
2018-03-28T16:45:33.259Z,71.20
2018-03-28T16:47:00.454Z,70.45
2018-03-28T16:48:27.680Z,70.70
2018-03-28T16:49:54.873Z,71.08
2018-03-28T16:51:21.956Z,70.94
2018-03-28T16:52:49.221Z,70.86
2018-03-28T16:54:20.491Z,71.67
2018-03-28T16:55:43.663Z,70.92
2018-03-28T16:57:10.868Z,70.13
2018-03-28T16:58:37.848Z,70.55
2018-03-28T17:00:05.157Z,70.98
2018-03-28T17:01:36.500Z,71.42
2018-03-28T17:03:03.626Z,71.06
2018-03-28T17:04:26.822Z,70.79
2018-03-28T17:05:54.074Z,71.66
2018-03-28T17:07:21.319Z,70.56
2018-03-28T17:08:48.455Z,71.44
2018-03-28T17:10:15.565Z,71.84
2018-03-28T17:11:42.819Z,71.45
2018-03-28T17:13:13.915Z,70.92
2018-03-28T17:14:41.212Z,70.76
2018-03-28T17:16:04.504Z,70.90
2018-03-28T17:17:35.696Z,70.88
2018-03-28T17:19:02.942Z,70.93
2018-03-28T17:20:26.226Z,71.27
2018-03-28T17:21:53.487Z,71.46
2018-03-28T17:23:24.582Z,71.67
2018-03-28T17:24:51.800Z,70.92
2018-03-28T17:26:14.941Z,71.02
2018-03-28T17:27:46.073Z,70.82
2018-03-28T17:29:09.102Z,70.47
2018-03-28T17:30:36.299Z,71.11
2018-03-28T17:32:07.511Z,71.37
2018-03-28T17:33:34.653Z,70.47
2018-03-28T17:35:01.745Z,70.48
2018-03-28T17:36:25.089Z,70.64
2018-03-28T17:37:52.065Z,71.30
2018-03-28T17:39:19.340Z,70.55
2018-03-28T17:40:50.343Z,71.08
2018-03-28T17:42:17.479Z,70.53
2018-03-28T17:43:40.734Z,70.86
2018-03-28T17:45:11.982Z,71.42
2018-03-28T17:46:38.979Z,70.43
2018-03-28T17:48:01.979Z,70.69
2018-03-28T17:49:29.230Z,71.53
2018-03-28T17:50:56.419Z,70.70
2018-03-28T17:52:27.448Z,70.76
2018-03-28T17:53:50.653Z,70.89
2018-03-28T17:55:21.904Z,72.60
2018-03-28T17:56:45.044Z,71.81
2018-03-28T17:58:12.244Z,71.64
2018-03-28T17:59:43.473Z,72.17
2018-03-28T18:01:06.603Z,71.43
2018-03-28T18:02:33.739Z,71.44
2018-03-28T18:04:04.981Z,71.53
2018-03-28T18:05:32.342Z,71.73
2018-03-28T18:06:59.562Z,71.49
2018-03-28T18:08:26.901Z,71.82
2018-03-28T18:09:50.014Z,72.28
2018-03-28T18:11:21.240Z,71.23
2018-03-28T18:12:44.410Z,71.73
2018-03-28T18:14:11.124Z,71.50
2018-03-28T18:15:38.158Z,72.21
2018-03-28T18:17:05.386Z,72.08
2018-03-28T18:18:32.578Z,72.87
2018-03-28T18:19:59.801Z,71.68
2018-03-28T18:21:27.076Z,71.82
2018-03-28T18:22:54.338Z,71.53
2018-03-28T18:24:25.593Z,72.34
2018-03-28T18:25:48.744Z,71.66
2018-03-28T18:27:16.152Z,72.33
2018-03-28T18:28:43.422Z,71.97
2018-03-28T18:30:10.508Z,72.47
2018-03-28T18:31:37.697Z,72.11
2018-03-28T18:33:08.958Z,72.19
2018-03-28T18:34:32.158Z,72.07
2018-03-28T18:35:59.328Z,72.09
2018-03-28T18:37:26.526Z,71.92
2018-03-28T18:38:53.791Z,72.94
2018-03-28T18:40:25.065Z,72.14
2018-03-28T18:41:48.457Z,72.61
2018-03-28T18:43:15.569Z,72.51
2018-03-28T18:44:46.697Z,72.45